Time;durP1;ratioP1;P1;durP2;ratioP2;P2;SDS_P1;SDS_P2;PMS_P1;PMS_P2;Temp;Humidity;BMP_temperature;BMP_pressure;BME280_temperature;BME280_humidity;BME280_pressure;Samples;Min_cycle;Max_cycle;Signal;HPM_P1;HPM_P2
2021/05/04 00:00:13;;;;;;;5.10;2.85;;;;;;;5.41;63.18;99165.02;1721833;82;21170;-42
2021/05/04 00:02:41;;;;;;;5.70;2.95;;;;;;;5.41;62.98;99169.84;1711809;82;21188;-42
2021/05/04 00:05:11;;;;;;;6.78;2.95;;;;;;;5.39;62.93;99167.23;1710593;83;22361;-42
2021/05/04 00:07:39;;;;;;;3.98;2.95;;;;;;;5.39;62.84;99163.20;1710583;83;21194;-42
2021/05/04 00:10:10;;;;;;;4.62;2.98;;;;;;;5.39;63.11;99157.83;1713359;82;21158;-42
2021/05/04 00:15:20;;;;;;;5.30;2.70;;;;;;;5.39;63.07;99163.99;1824290;76;22673;-41
2021/05/04 00:17:48;;;;;;;5.33;2.80;;;;;;;5.25;63.53;99166.96;1785479;79;21003;-41
2021/05/04 00:20:17;;;;;;;5.67;2.75;;;;;;;5.27;63.64;99168.54;1805870;79;22054;-41
2021/05/04 00:22:45;;;;;;;6.40;2.85;;;;;;;5.29;63.67;99164.95;1795092;79;21329;-41
2021/05/04 00:25:13;;;;;;;4.53;2.65;;;;;;;5.30;63.37;99164.63;1794849;79;21735;-41
2021/05/04 00:27:41;;;;;;;3.98;2.50;;;;;;;5.29;63.51;99173.80;1784799;79;21751;-41
2021/05/04 00:30:11;;;;;;;4.22;2.52;;;;;;;5.26;63.62;99169.09;1749581;82;21152;-41
2021/05/04 00:32:39;;;;;;;4.58;2.83;;;;;;;5.24;63.61;99169.41;1740332;82;21406;-41
2021/05/04 00:35:10;;;;;;;2.83;2.55;;;;;;;5.22;64.00;99174.90;1732389;81;21201;-41
2021/05/04 00:37:37;;;;;;;8.03;2.80;;;;;;;5.20;64.25;99178.45;1761169;81;21581;-41
2021/05/04 00:40:08;;;;;;;3.10;2.45;;;;;;;5.21;64.22;99176.01;1784144;79;21178;-41
2021/05/04 00:42:35;;;;;;;4.08;2.70;;;;;;;5.23;63.98;99179.92;1793178;79;21157;-41
2021/05/04 00:45:06;;;;;;;5.60;3.08;;;;;;;5.27;63.97;99169.33;1795635;79;21361;-41
2021/05/04 00:47:34;;;;;;;4.60;2.70;;;;;;;5.23;64.29;99178.58;1799642;79;21629;-41
2021/05/04 00:50:03;;;;;;;3.58;2.72;;;;;;;5.22;64.17;99182.96;1806516;79;21126;-41
2021/05/04 00:52:31;;;;;;;4.70;2.90;;;;;;;5.19;64.34;99175.53;1785143;79;21577;-41
2021/05/04 00:54:59;;;;;;;5.28;3.20;;;;;;;5.18;64.64;99178.02;1800334;79;21106;-41
2021/05/04 00:57:27;;;;;;;5.47;2.98;;;;;;;5.21;64.72;99170.63;1798033;79;21208;-41
2021/05/04 00:59:54;;;;;;;3.45;2.62;;;;;;;5.30;64.75;99172.69;1793750;79;21584;-41
2021/05/04 01:02:22;;;;;;;6.55;2.83;;;;;;;5.36;64.29;99171.94;1805039;79;20988;-41
2021/05/04 01:04:50;;;;;;;4.22;2.92;;;;;;;5.37;64.48;99172.17;1787097;79;21549;-41
2021/05/04 01:07:18;;;;;;;4.17;2.83;;;;;;;5.37;64.20;99168.14;1798794;79;21107;-41
2021/05/04 01:09:47;;;;;;;3.83;2.70;;;;;;;5.36;64.16;99168.70;1808105;79;21400;-41
2021/05/04 01:12:15;;;;;;;4.75;2.65;;;;;;;5.32;64.63;99169.69;1805939;79;21154;-41
2021/05/04 01:14:43;;;;;;;4.42;2.58;;;;;;;5.26;64.70;99165.06;1784364;79;21142;-41
2021/05/04 01:17:11;;;;;;;5.00;2.87;;;;;;;5.24;65.11;99172.66;1815209;78;21110;-41
2021/05/04 01:19:39;;;;;;;3.65;3.00;;;;;;;5.28;64.98;99161.47;1790297;79;21465;-41
2021/05/04 01:22:07;;;;;;;5.33;3.30;;;;;;;5.29;64.77;99166.30;1800392;79;21355;-41
2021/05/04 01:24:36;;;;;;;5.45;3.05;;;;;;;5.27;65.07;99166.64;1800438;79;21269;-41
2021/05/04 01:27:06;;;;;;;4.30;3.17;;;;;;;5.24;65.21;99169.97;1784364;79;20987;-41
2021/05/04 01:29:34;;;;;;;5.92;3.20;;;;;;;5.20;65.50;99178.45;1798285;79;21122;-41
2021/05/04 01:32:03;;;;;;;3.92;3.05;;;;;;;5.17;65.49;99172.41;1788916;79;21400;-41
2021/05/04 01:34:31;;;;;;;3.33;2.58;;;;;;;5.19;65.45;99179.02;1787771;79;21251;-41
2021/05/04 01:36:59;;;;;;;3.65;2.65;;;;;;;5.23;65.42;99170.52;1812684;79;22205;-41
2021/05/04 01:39:35;;;;;;;10.13;3.37;;;;;;;5.25;65.54;99164.83;1811689;79;21130;-41
2021/05/04 01:42:12;;;;;;;4.08;3.20;;;;;;;5.27;65.44;99166.64;1883895;75;22340;-41
2021/05/04 01:44:41;;;;;;;4.55;3.55;;;;;;;5.22;65.53;99171.66;1835584;77;20984;-41
2021/05/04 01:47:09;;;;;;;4.50;3.35;;;;;;;5.19;65.56;99166.92;1831144;77;21345;-41
2021/05/04 01:49:39;;;;;;;4.10;3.00;;;;;;;5.20;65.49;99179.80;1837065;75;21031;-41
2021/05/04 01:52:09;;;;;;;4.72;3.25;;;;;;;5.20;65.84;99178.45;1825499;78;21378;-41
2021/05/04 01:54:37;;;;;;;7.87;3.52;;;;;;;5.25;65.92;99174.23;1845619;77;21071;-41
2021/05/04 01:57:05;;;;;;;4.12;3.40;;;;;;;5.32;65.72;99177.75;1846691;77;21003;-41
2021/05/04 01:59:34;;;;;;;5.43;3.80;;;;;;;5.32;65.40;99172.38;1852703;77;22132;-41
2021/05/04 02:02:03;;;;;;;5.25;3.27;;;;;;;5.32;65.39;99170.48;1851111;75;21031;-41
2021/05/04 02:04:32;;;;;;;4.17;3.05;;;;;;;5.31;65.42;99170.23;1859214;77;21572;-41
2021/05/04 02:07:03;;;;;;;7.45;3.67;;;;;;;5.32;65.31;99173.16;1844464;77;21201;-41
2021/05/04 02:09:31;;;;;;;8.20;3.60;;;;;;;5.32;65.53;99181.23;1853929;77;21149;-41
2021/05/04 02:11:59;;;;;;;5.28;3.58;;;;;;;5.32;65.56;99179.09;1846475;77;21359;-41
2021/05/04 02:14:27;;;;;;;6.72;3.40;;;;;;;5.35;65.62;99184.59;1840002;77;21180;-41
2021/05/04 02:16:55;;;;;;;5.65;3.50;;;;;;;5.32;65.45;99186.60;1856117;77;21160;-41
2021/05/04 02:19:23;;;;;;;4.37;3.47;;;;;;;5.27;65.63;99192.17;1834662;77;21153;-41
2021/05/04 02:21:51;;;;;;;5.90;3.55;;;;;;;5.21;66.15;99196.95;1857226;77;21573;-41
2021/05/04 02:24:19;;;;;;;5.37;3.50;;;;;;;5.16;66.22;99199.05;1846782;77;21201;-41
2021/05/04 02:26:47;;;;;;;3.77;3.25;;;;;;;5.12;66.48;99198.13;1798772;78;21113;-41
2021/05/04 02:29:15;;;;;;;7.20;3.60;;;;;;;5.16;66.53;99203.08;1810777;78;21732;-41
2021/05/04 02:31:43;;;;;;;9.20;4.55;;;;;;;5.21;66.58;99202.88;1819070;78;21171;-41
2021/05/04 02:34:11;;;;;;;6.62;3.67;;;;;;;5.20;66.65;99202.65;1817471;78;21162;-41
2021/05/04 02:36:40;;;;;;;5.10;3.80;;;;;;;5.19;66.53;99191.11;1818382;78;21368;-41
2021/05/04 02:39:09;;;;;;;5.00;3.70;;;;;;;5.20;66.54;99198.62;1817856;78;21001;-41
2021/05/04 02:41:38;;;;;;;5.95;3.90;;;;;;;5.19;66.44;99199.72;1798449;78;25791;-41
2021/05/04 02:44:07;;;;;;;7.58;3.70;;;;;;;5.18;66.58;99200.86;1801831;78;21146;-41
2021/05/04 02:46:35;;;;;;;4.97;3.67;;;;;;;5.20;66.40;99199.41;1814555;78;21994;-41
2021/05/04 02:49:03;;;;;;;5.53;3.87;;;;;;;5.26;66.15;99191.94;1812923;78;21366;-41
2021/05/04 02:51:31;;;;;;;9.03;4.62;;;;;;;5.25;66.30;99196.52;1793371;78;21688;-41
2021/05/04 02:53:59;;;;;;;7.75;3.77;;;;;;;5.25;66.17;99190.36;1798104;78;21004;-41
2021/05/04 02:56:27;;;;;;;4.58;3.87;;;;;;;5.22;66.29;99202.56;1811646;78;21612;-42
2021/05/04 02:58:55;;;;;;;5.85;3.45;;;;;;;5.19;66.70;99201.86;1798869;78;21165;-41
2021/05/04 03:01:23;;;;;;;6.15;3.67;;;;;;;5.21;66.90;99202.88;1761075;80;21226;-41
2021/05/04 03:03:52;;;;;;;6.10;3.62;;;;;;;5.21;66.70;99192.92;1787243;79;21198;-41
2021/05/04 03:06:20;;;;;;;5.70;4.03;;;;;;;5.34;66.55;99209.89;1786975;80;21040;-41
2021/05/04 03:08:48;;;;;;;6.85;4.25;;;;;;;5.36;66.68;99214.39;1802109;78;21144;-41
2021/05/04 03:11:16;;;;;;;7.45;4.22;;;;;;;5.36;66.44;99218.42;1805652;78;21151;-42
2021/05/04 03:13:44;;;;;;;6.25;4.42;;;;;;;5.34;66.43;99213.92;1786700;78;21365;-41
2021/05/04 03:16:12;;;;;;;7.28;4.55;;;;;;;5.32;66.50;99218.86;1797430;78;21118;-41
2021/05/04 03:18:41;;;;;;;9.20;4.97;;;;;;;5.29;66.64;99225.42;1797878;78;21057;-41
2021/05/04 03:21:09;;;;;;;5.12;3.40;;;;;;;5.29;66.77;99228.91;1817243;78;21151;-41
2021/05/04 03:23:37;;;;;;;7.35;4.50;;;;;;;5.35;66.79;99228.16;1796600;77;21164;-41
2021/05/04 03:26:06;;;;;;;5.72;4.62;;;;;;;5.34;66.85;99229.27;1798872;77;21379;-41
2021/05/04 03:28:34;;;;;;;7.35;4.10;;;;;;;5.31;66.99;99233.41;1809938;78;21025;-41
2021/05/04 03:31:02;;;;;;;6.33;4.62;;;;;;;5.30;67.22;99237.20;1811925;77;21150;-41
2021/05/04 03:33:30;;;;;;;6.30;4.30;;;;;;;5.28;67.31;99238.07;1773446;80;21617;-41
2021/05/04 03:35:58;;;;;;;6.00;4.20;;;;;;;5.25;67.49;99236.84;1802348;78;21174;-41
2021/05/04 03:38:26;;;;;;;6.25;4.33;;;;;;;5.31;67.52;99232.06;1806299;78;21362;-41
2021/05/04 03:40:54;;;;;;;6.12;4.50;;;;;;;5.39;67.53;99235.23;1805295;78;21209;-42
2021/05/04 03:43:22;;;;;;;7.78;4.50;;;;;;;5.38;67.64;99235.55;1812859;77;21597;-42
2021/05/04 03:45:50;;;;;;;6.03;4.40;;;;;;;5.34;67.78;99235.42;1812619;78;21043;-42
2021/05/04 03:48:19;;;;;;;7.85;4.62;;;;;;;5.34;68.10;99234.08;1783223;78;21239;-41
2021/05/04 03:50:48;;;;;;;5.58;4.35;;;;;;;5.34;68.13;99236.77;1785862;79;21437;-42
2021/05/04 03:53:17;;;;;;;8.38;3.77;;;;;;;5.39;68.26;99236.58;1787784;79;21189;-42
2021/05/04 03:55:46;;;;;;;6.45;4.40;;;;;;;5.48;68.06;99227.89;1793635;79;21176;-42
2021/05/04 03:58:15;;;;;;;6.58;4.60;;;;;;;5.56;68.01;99222.23;1769225;80;21199;-41
2021/05/04 04:00:43;;;;;;;7.30;4.70;;;;;;;5.59;67.82;99233.10;1810709;78;21194;-41
2021/05/04 04:03:12;;;;;;;5.87;4.80;;;;;;;5.59;67.72;99230.41;1787908;80;21182;-42
2021/05/04 04:05:42;;;;;;;8.30;4.67;;;;;;;5.61;67.95;99238.95;1817787;78;21066;-42
2021/05/04 04:08:10;;;;;;;5.78;4.20;;;;;;;5.67;67.79;99238.17;1795821;79;21024;-42
2021/05/04 04:10:39;;;;;;;7.72;4.78;;;;;;;5.79;67.53;99232.06;1786284;80;21179;-42
2021/05/04 04:13:07;;;;;;;5.92;4.00;;;;;;;5.87;66.99;99235.25;1809439;77;21177;-42
2021/05/04 04:15:36;;;;;;;6.87;3.67;;;;;;;5.90;67.23;99233.27;1805431;78;21580;-42
2021/05/04 04:18:05;;;;;;;5.47;4.28;;;;;;;5.95;66.96;99234.41;1801063;78;21872;-42
2021/05/04 04:20:33;;;;;;;6.92;4.47;;;;;;;5.95;67.16;99243.83;1806529;78;21163;-42
2021/05/04 04:23:01;;;;;;;6.58;4.00;;;;;;;6.02;67.26;99238.67;1815656;78;21616;-42
2021/05/04 04:25:29;;;;;;;6.97;4.42;;;;;;;6.14;66.86;99245.45;1796884;78;21136;-42
2021/05/04 04:27:57;;;;;;;6.95;4.15;;;;;;;6.21;66.19;99243.54;1787826;78;21474;-42
2021/05/04 04:30:26;;;;;;;7.83;4.47;;;;;;;6.24;66.52;99244.24;1815827;78;21170;-43
2021/05/04 04:32:54;;;;;;;5.45;3.98;;;;;;;6.28;66.38;99251.31;1801193;78;21170;-42
2021/05/04 04:35:22;;;;;;;5.80;4.67;;;;;;;6.29;66.02;99231.91;1820852;78;21600;-42
2021/05/04 04:37:50;;;;;;;4.85;3.90;;;;;;;6.32;66.43;99246.05;1796369;78;21175;-42
2021/05/04 04:40:18;;;;;;;6.53;4.25;;;;;;;6.37;66.03;99252.00;1788348;80;21244;-42
2021/05/04 04:42:46;;;;;;;6.85;4.40;;;;;;;6.46;65.74;99252.69;1791167;79;21195;-42
2021/05/04 04:45:15;;;;;;;5.90;4.30;;;;;;;6.48;65.77;99258.54;1792035;80;21190;-42
2021/05/04 04:47:43;;;;;;;5.83;4.65;;;;;;;6.51;65.92;99255.17;1792080;80;21662;-42
2021/05/04 04:50:12;;;;;;;5.15;4.40;;;;;;;6.54;65.67;99258.53;1793074;78;21175;-42
2021/05/04 04:52:39;;;;;;;5.62;3.85;;;;;;;6.59;65.65;99262.12;1776982;79;21385;-42
2021/05/04 04:55:08;;;;;;;7.10;4.08;;;;;;;6.62;65.79;99258.77;1779370;78;21185;-42
2021/05/04 04:57:36;;;;;;;5.62;4.03;;;;;;;6.72;65.58;99259.69;1792042;80;21157;-42
2021/05/04 05:00:07;;;;;;;5.62;3.95;;;;;;;6.77;65.13;99261.59;1799089;78;21189;-42
2021/05/04 05:02:35;;;;;;;5.62;4.60;;;;;;;6.84;65.12;99261.81;1821906;78;21327;-42
2021/05/04 05:05:05;;;;;;;6.50;4.50;;;;;;;6.90;65.06;99260.47;1819005;78;21180;-41
2021/05/04 05:07:33;;;;;;;5.37;4.30;;;;;;;6.96;63.95;99277.20;1802429;78;21185;-41
2021/05/04 05:10:06;;;;;;;7.22;4.55;;;;;;;7.02;63.38;99268.34;1797477;78;21151;-40
2021/05/04 05:12:35;;;;;;;8.13;4.17;;;;;;;7.10;63.32;99270.91;1769455;79;21031;-40
2021/05/04 05:15:06;;;;;;;5.05;4.22;;;;;;;7.20;63.05;99266.41;1790752;79;21154;-40
2021/05/04 05:17:34;;;;;;;;;;;;;;;7.25;62.69;99274.27;1823795;78;22281;-41
2021/05/04 05:20:04;;;;;;;7.50;4.42;;;;;;;7.30;62.76;99261.11;1798376;78;20289;-40
2021/05/04 05:22:31;;;;;;;6.78;4.70;;;;;;;7.21;62.74;99267.95;1794545;79;21592;-41
2021/05/04 05:24:59;;;;;;;5.58;4.05;;;;;;;7.25;62.73;99278.31;1795603;79;21118;-40
2021/05/04 05:27:30;;;;;;;7.05;4.37;;;;;;;7.30;62.90;99267.30;1822199;78;21202;-40
2021/05/04 05:30:00;;;;;;;5.42;3.90;;;;;;;7.45;62.24;99267.72;1759205;81;21639;-40
2021/05/04 05:32:28;;;;;;;6.80;4.03;;;;;;;7.58;62.34;99261.16;1787211;78;21017;-41
2021/05/04 05:34:56;;;;;;;6.70;4.45;;;;;;;7.64;61.51;99266.55;1768426;79;21666;-40
2021/05/04 05:37:24;;;;;;;6.00;4.60;;;;;;;7.71;61.55;99268.08;1810159;78;21165;-40
2021/05/04 05:39:55;;;;;;;6.83;3.85;;;;;;;7.80;61.60;99270.07;1801187;78;21494;-40
2021/05/04 05:42:23;;;;;;;5.50;4.00;;;;;;;7.92;60.96;99282.19;1801240;78;21397;-40
2021/05/04 05:44:53;;;;;;;4.33;3.92;;;;;;;8.00;60.70;99275.84;1810953;78;21185;-40
2021/05/04 05:47:21;;;;;;;5.87;3.98;;;;;;;8.09;60.97;99275.69;1783301;79;21201;-40
2021/05/04 05:49:49;;;;;;;5.62;3.52;;;;;;;8.22;60.80;99282.63;1789645;79;21881;-41
2021/05/04 05:52:17;;;;;;;5.62;3.95;;;;;;;8.34;60.72;99283.93;1799287;79;21146;-40
2021/05/04 05:54:46;;;;;;;5.65;4.03;;;;;;;8.44;59.61;99285.34;1811007;79;23197;-41
2021/05/04 05:57:14;;;;;;;4.55;4.05;;;;;;;8.44;58.96;99283.98;1809967;79;21162;-40
2021/05/04 05:59:43;;;;;;;5.90;4.50;;;;;;;8.41;59.64;99284.13;1791980;79;21166;-41
2021/05/04 06:02:12;;;;;;;5.97;4.42;;;;;;;8.37;59.75;99281.91;1802980;79;21158;-41
2021/05/04 06:04:41;;;;;;;5.70;3.90;;;;;;;8.39;59.96;99284.23;1788772;78;21170;-40
2021/05/04 06:07:09;;;;;;;5.33;4.12;;;;;;;8.44;59.67;99288.83;1790642;78;21274;-40
2021/05/04 06:09:37;;;;;;;5.75;4.25;;;;;;;8.53;60.03;99291.36;1778957;79;21149;-41
2021/05/04 06:12:06;;;;;;;7.03;4.45;;;;;;;8.61;60.09;99288.52;1778918;80;21597;-40
2021/05/04 06:14:34;;;;;;;7.37;3.33;;;;;;;8.70;58.81;99292.39;1798740;79;21071;-41
2021/05/04 06:17:03;;;;;;;5.97;4.37;;;;;;;8.80;58.92;99293.23;1786189;80;21217;-40
2021/05/04 06:19:31;;;;;;;7.10;4.50;;;;;;;8.81;58.79;99289.37;1803978;78;21325;-41
2021/05/04 06:21:59;;;;;;;5.17;4.22;;;;;;;8.82;58.68;99288.80;1769715;80;21134;-40
2021/05/04 06:24:27;;;;;;;7.33;3.77;;;;;;;8.81;58.38;99281.26;1801437;78;21148;-40
2021/05/04 06:26:55;;;;;;;5.05;4.33;;;;;;;8.79;59.09;99288.16;1819301;77;21178;-40
2021/05/04 06:29:23;;;;;;;5.05;3.87;;;;;;;8.77;58.62;99292.55;1782310;80;21206;-41
2021/05/04 06:31:58;;;;;;;5.12;4.30;;;;;;;8.73;58.41;99293.83;1807282;79;21166;-41
2021/05/04 06:34:21;;;;;;;6.92;4.15;;;;;;;8.71;58.85;99289.91;1813525;78;26044;-41
2021/05/04 06:36:49;;;;;;;5.72;4.08;;;;;;;8.71;58.72;99296.67;1818875;78;21147;-41
2021/05/04 06:39:17;;;;;;;4.97;3.90;;;;;;;8.72;58.84;99295.52;1774502;80;21185;-41
2021/05/04 06:41:45;;;;;;;7.03;4.53;;;;;;;8.73;59.23;99306.55;1802917;78;21133;-41
2021/05/04 06:44:14;;;;;;;5.03;4.17;;;;;;;8.73;58.71;99299.23;1813702;79;21191;-40
2021/05/04 06:46:42;;;;;;;6.40;5.03;;;;;;;8.73;58.47;99311.95;1815579;79;21118;-41
2021/05/04 06:49:10;;;;;;;5.05;3.87;;;;;;;8.70;58.27;99320.77;1796864;79;21527;-40
2021/05/04 06:51:38;;;;;;;6.17;4.22;;;;;;;8.67;58.04;99311.98;1800977;79;21440;-41
2021/05/04 06:54:06;;;;;;;5.47;4.40;;;;;;;8.67;58.01;99316.83;1814357;77;21166;-40
2021/05/04 06:56:35;;;;;;;5.40;4.00;;;;;;;8.76;57.99;99320.74;1807873;79;21306;-40
2021/05/04 06:59:05;;;;;;;6.45;4.47;;;;;;;8.84;57.22;99310.88;1792201;79;21191;-41
2021/05/04 07:01:34;;;;;;;5.87;4.47;;;;;;;8.96;58.09;99315.62;1806794;79;26675;-41
2021/05/04 07:04:03;;;;;;;7.65;5.00;;;;;;;9.06;56.94;99318.36;1800678;78;21134;-40
2021/05/04 07:06:32;;;;;;;5.17;4.42;;;;;;;9.13;57.12;99317.98;1765766;80;21168;-41
2021/05/04 07:09:00;;;;;;;5.55;4.17;;;;;;;9.20;56.27;99321.41;1784518;79;22296;-41
2021/05/04 07:11:30;;;;;;;5.67;4.17;;;;;;;8.85;56.24;99272.69;1777477;79;21173;-41
2021/05/04 07:14:02;;;;;;;4.75;4.03;;;;;;;9.13;56.18;99338.83;1783526;79;21030;-40
2021/05/04 07:16:29;;;;;;;5.58;4.17;;;;;;;9.13;56.49;99327.45;1766778;81;21565;-41
2021/05/04 07:18:57;;;;;;;5.33;3.83;;;;;;;9.17;56.10;99330.23;1757297;81;21177;-40
2021/05/04 07:21:25;;;;;;;5.35;4.12;;;;;;;9.14;55.79;99331.73;1765867;81;21196;-41
2021/05/04 07:23:53;;;;;;;4.42;3.75;;;;;;;9.05;55.73;99333.80;1714041;81;21165;-41
2021/05/04 07:26:21;;;;;;;7.28;4.45;;;;;;;9.07;56.45;99329.41;1795998;79;21145;-41
2021/05/04 07:28:49;;;;;;;5.67;4.10;;;;;;;9.17;56.34;99332.94;1809372;79;21153;-40
2021/05/04 07:31:18;;;;;;;6.37;4.08;;;;;;;9.25;55.70;99333.31;1799524;79;21157;-41
2021/05/04 07:33:49;;;;;;;6.20;3.80;;;;;;;9.27;55.26;99328.91;1760113;81;21730;-41
2021/05/04 07:36:18;;;;;;;5.92;3.72;;;;;;;9.30;55.68;99334.96;1754678;81;21110;-40
2021/05/04 07:38:46;;;;;;;4.55;3.77;;;;;;;9.42;55.14;99338.36;1749631;81;21142;-41
2021/05/04 07:41:14;;;;;;;5.62;3.90;;;;;;;9.54;54.94;99336.88;1767482;81;21189;-41
2021/05/04 07:43:42;;;;;;;4.47;3.92;;;;;;;9.67;54.51;99344.34;1766489;81;21644;-41
2021/05/04 07:46:10;;;;;;;4.42;4.03;;;;;;;9.73;53.77;99343.50;1787535;80;21241;-40
2021/05/04 07:48:39;;;;;;;5.47;4.40;;;;;;;9.67;53.97;99352.45;1791677;79;21160;-40
2021/05/04 07:51:08;;;;;;;6.53;5.03;;;;;;;9.50;54.05;99342.00;1761370;80;21162;-41
2021/05/04 07:53:36;;;;;;;5.53;3.90;;;;;;;9.34;54.11;99349.38;1784935;80;21177;-41
2021/05/04 07:56:05;;;;;;;5.25;4.12;;;;;;;9.18;55.00;99344.54;1792079;79;21588;-41
2021/05/04 07:58:33;;;;;;;5.42;4.12;;;;;;;9.04;55.56;99348.48;1792091;79;21191;-40
2021/05/04 08:01:00;;;;;;;6.42;4.40;;;;;;;8.92;55.30;99345.84;1788952;79;21206;-40
2021/05/04 08:03:29;;;;;;;5.85;4.10;;;;;;;8.80;55.53;99362.16;1788535;79;21174;-41
2021/05/04 08:05:59;;;;;;;5.03;4.30;;;;;;;8.70;56.26;99364.80;1788018;80;21209;-40
2021/05/04 08:08:27;;;;;;;6.75;4.17;;;;;;;8.63;56.38;99362.47;1755135;80;21162;-40
2021/05/04 08:10:55;;;;;;;5.17;3.87;;;;;;;8.59;56.25;99359.67;1763474;81;21288;-40
2021/05/04 08:13:26;;;;;;;8.13;4.08;;;;;;;8.58;56.79;99368.12;1759072;80;21223;-40
2021/05/04 08:15:55;;;;;;;5.35;4.10;;;;;;;8.55;56.68;99361.50;1754810;80;21203;-41
2021/05/04 08:18:23;;;;;;;4.62;3.75;;;;;;;8.59;56.20;99358.33;1746784;80;21184;-41
2021/05/04 08:20:56;;;;;;;5.15;3.50;;;;;;;8.64;56.71;99350.53;1758338;81;21576;-41
2021/05/04 08:23:25;;;;;;;5.90;3.05;;;;;;;8.72;55.06;99341.47;1812913;79;22338;-40
2021/05/04 08:25:53;;;;;;;4.53;3.67;;;;;;;8.86;55.28;99354.58;1805975;79;21212;-41
2021/05/04 08:28:21;;;;;;;4.75;3.30;;;;;;;8.97;54.33;99348.85;1789609;80;21150;-41
2021/05/04 08:30:53;;;;;;;4.40;3.50;;;;;;;9.08;54.45;99354.75;1793580;79;21146;-41
2021/05/04 08:33:22;;;;;;;4.15;3.20;;;;;;;9.21;54.15;99347.89;1764178;80;21174;-41
2021/05/04 08:35:50;;;;;;;6.10;3.58;;;;;;;9.30;54.39;99354.69;1797058;79;21277;-40
2021/05/04 08:38:18;;;;;;;6.30;3.77;;;;;;;9.32;53.88;99352.98;1797818;79;21883;-41
2021/05/04 08:40:46;;;;;;;6.22;3.33;;;;;;;9.28;53.86;99350.77;1760237;81;21197;-41
2021/05/04 08:43:16;;;;;;;4.58;3.98;;;;;;;9.26;53.85;99359.80;1783834;80;21664;-40
2021/05/04 08:45:44;;;;;;;;;;;;;;;9.20;53.41;99354.45;1777705;80;21150;-41
2021/05/04 08:48:14;;;;;;;5.92;3.83;;;;;;;9.11;54.32;99350.55;1738741;81;21220;-40
2021/05/04 08:50:42;;;;;;;6.83;4.47;;;;;;;8.95;54.92;99368.15;1758961;80;21627;-41
2021/05/04 08:53:13;;;;;;;5.60;3.70;;;;;;;8.92;55.25;99359.36;1779180;80;25299;-41
2021/05/04 08:55:41;;;;;;;4.97;4.00;;;;;;;8.87;55.40;99371.78;1799718;79;21615;-40
2021/05/04 08:58:10;;;;;;;6.17;4.20;;;;;;;8.86;56.06;99351.28;1808565;79;21162;-41
2021/05/04 09:00:39;;;;;;;4.22;3.33;;;;;;;8.89;56.49;99345.20;1764929;81;21275;-40
2021/05/04 09:06:06;;;;;;;4.65;3.87;;;;;;;9.22;56.17;99341.34;1810955;79;21573;-41
2021/05/04 09:11:45;;;;;;;4.25;3.50;;;;;;;9.88;54.52;99342.07;1831732;76;22747;-40
2021/05/04 09:22:10;;;;;;;4.40;3.30;;;;;;;10.78;50.94;99323.14;1816151;79;20999;-40
2021/05/04 09:24:44;;;;;;;6.20;3.60;;;;;;;10.98;49.84;99327.15;1803289;79;21656;-40
2021/05/04 09:27:16;;;;;;;4.92;2.75;;;;;;;11.09;48.99;99326.16;1784070;80;20972;-40
2021/05/04 09:29:53;;;;;;;4.75;3.10;;;;;;;11.17;48.87;99330.57;1784809;79;21317;-40
2021/05/04 09:32:35;;;;;;;2.45;2.20;;;;;;;11.27;47.35;99319.67;1790895;79;21015;-40
2021/05/04 09:35:07;;;;;;;3.02;2.35;;;;;;;11.42;46.22;99317.38;1811513;79;21055;-40
2021/05/04 09:37:41;;;;;;;3.87;2.95;;;;;;;11.55;46.36;99322.80;1784379;79;21130;-40
2021/05/04 09:40:26;;;;;;;5.25;2.65;;;;;;;11.74;46.40;99330.86;1813307;78;21158;-40
2021/05/04 09:43:02;;;;;;;2.80;2.15;;;;;;;11.92;46.81;99320.79;1803377;79;21177;-41
2021/05/04 09:45:32;;;;;;;7.10;4.30;;;;;;;12.11;46.36;99325.50;1808842;79;21154;-40
2021/05/04 09:48:11;;;;;;;5.90;4.00;;;;;;;12.26;44.75;99323.73;1806768;79;21126;-40
2021/05/04 09:50:57;;;;;;;4.08;2.85;;;;;;;12.22;44.79;99324.27;1785265;79;21059;-40
2021/05/04 09:53:34;;;;;;;2.60;2.22;;;;;;;12.19;45.43;99316.88;1805752;79;21118;-40
2021/05/04 09:56:00;;;;;;;2.55;1.90;;;;;;;12.13;43.70;99333.30;1779948;80;21389;-41
2021/05/04 09:58:38;;;;;;;3.83;1.70;;;;;;;11.99;43.67;99345.34;1801791;79;21154;-42
2021/05/04 10:01:14;;;;;;;;;;;;;;;11.89;43.96;99321.53;1805302;79;21593;-41
2021/05/04 10:03:45;;;;;;;4.70;2.52;;;;;;;11.71;43.95;99318.56;1810599;79;20297;-41
2021/05/04 10:06:14;;;;;;;3.22;2.10;;;;;;;11.39;44.71;99315.95;1784803;79;21153;-41
2021/05/04 10:08:44;;;;;;;1.95;1.72;;;;;;;11.31;45.57;99330.80;1804195;79;22333;-41
2021/05/04 10:11:21;;;;;;;3.20;2.02;;;;;;;11.47;44.72;99327.14;1827504;78;22188;-41
2021/05/04 10:13:57;;;;;;;4.30;2.02;;;;;;;11.82;45.14;99322.22;1799444;78;21181;-41
2021/05/04 10:16:30;;;;;;;2.67;1.80;;;;;;;12.17;44.41;99293.34;1804530;78;21121;-41
2021/05/04 10:19:05;;;;;;;4.00;1.95;;;;;;;12.44;44.12;99308.39;1828360;78;21145;-41
2021/05/04 10:21:33;;;;;;;2.92;2.10;;;;;;;12.67;43.29;99310.97;1798391;79;21636;-41
2021/05/04 10:24:01;;;;;;;3.98;2.10;;;;;;;12.65;42.35;99309.19;1806044;78;21165;-41
2021/05/04 10:26:30;;;;;;;4.37;2.08;;;;;;;12.64;42.83;99305.69;1814547;78;21164;-41
2021/05/04 10:29:08;;;;;;;2.17;1.67;;;;;;;12.63;42.51;99321.03;1830934;78;21592;-40
2021/05/04 10:31:44;;;;;;;3.98;1.70;;;;;;;12.66;41.55;99305.89;1819865;78;21135;-40
2021/05/04 10:34:33;;;;;;;2.05;1.80;;;;;;;12.85;42.68;99313.27;1828340;78;21358;-41
2021/05/04 10:37:06;;;;;;;3.35;1.85;;;;;;;13.16;40.51;99306.56;1815328;78;21161;-41
2021/05/04 10:39:36;;;;;;;1.95;1.65;;;;;;;13.48;40.97;99314.36;1822810;78;21157;-41
2021/05/04 10:42:06;;;;;;;2.47;1.60;;;;;;;13.68;39.54;99326.34;1804120;78;21161;-41
2021/05/04 10:44:57;;;;;;;2.67;1.90;;;;;;;13.62;39.45;99322.41;1798207;79;21165;-41
2021/05/04 10:47:47;;;;;;;2.75;1.60;;;;;;;13.44;39.18;99319.02;1798761;78;22405;-42
2021/05/04 10:50:24;;;;;;;2.37;1.80;;;;;;;13.48;41.20;99320.39;1801280;78;21181;-42
2021/05/04 10:52:58;;;;;;;2.17;1.70;;;;;;;13.45;39.05;99313.77;1729276;80;21196;-42
2021/05/04 10:55:54;;;;;;;1.80;1.65;;;;;;;13.30;40.27;99312.11;1779150;80;21191;-42
2021/05/04 10:58:27;;;;;;;2.77;1.50;;;;;;;13.28;41.50;99304.10;1757460;80;21177;-41
2021/05/04 11:03:43;;;;;;;3.05;1.77;;;;;;;13.48;40.40;99313.00;1822825;78;22763;-42
2021/05/04 11:06:31;;;;;;;1.82;1.45;;;;;;;13.62;39.45;99310.16;1815726;79;21596;-41
2021/05/04 11:09:09;;;;;;;2.75;1.65;;;;;;;13.72;40.19;99310.22;1814369;78;21349;-42
2021/05/04 11:11:41;;;;;;;3.55;1.87;;;;;;;13.80;38.90;99302.84;1791891;78;21064;-41
2021/05/04 11:14:20;;;;;;;2.20;1.67;;;;;;;13.76;39.42;99309.66;1797298;79;21016;-41
2021/05/04 11:16:58;;;;;;;2.42;1.62;;;;;;;13.60;39.91;99312.50;1813258;79;21628;-41
2021/05/04 11:19:33;;;;;;;2.27;1.67;;;;;;;13.46;39.81;99300.91;1800733;78;21023;-41
2021/05/04 11:22:17;;;;;;;3.55;2.08;;;;;;;13.52;40.70;99302.70;1744679;82;21594;-42
2021/05/04 11:24:49;;;;;;;2.02;1.70;;;;;;;13.53;38.60;99296.88;1779784;80;21345;-42
2021/05/04 11:27:21;;;;;;;2.60;1.70;;;;;;;13.51;38.81;99307.97;1738045;80;21218;-42
2021/05/04 11:29:52;;;;;;;2.98;1.55;;;;;;;13.77;39.82;99310.44;1719881;81;21181;-42
2021/05/04 11:32:28;;;;;;;1.60;1.20;;;;;;;14.00;39.01;99306.84;1716694;81;21123;-41
2021/05/04 11:35:01;;;;;;;2.40;1.70;;;;;;;14.14;38.65;99304.75;1721418;83;21216;-42
2021/05/04 11:37:40;;;;;;;2.17;1.50;;;;;;;14.05;37.17;99309.20;1746322;81;21601;-42
2021/05/04 11:40:18;;;;;;;3.65;1.50;;;;;;;13.99;36.69;99303.91;1731755;80;21118;-42
2021/05/04 11:42:57;;;;;;;2.10;1.60;;;;;;;14.17;37.63;99301.27;1759348;80;21147;-43
2021/05/04 11:45:33;;;;;;;3.67;1.57;;;;;;;14.42;37.64;99283.65;1761210;80;21190;-43
2021/05/04 11:48:10;;;;;;;3.67;1.87;;;;;;;14.50;36.64;99286.58;1770308;80;21358;-44
2021/05/04 11:50:41;;;;;;;2.58;1.72;;;;;;;14.58;37.11;99271.77;1779836;80;20976;-41
2021/05/04 11:53:11;;;;;;;2.58;1.50;;;;;;;14.79;37.46;99277.27;1760856;80;21526;-41
2021/05/04 11:55:42;;;;;;;4.67;2.08;;;;;;;15.09;35.68;99271.41;1774133;80;21202;-41
2021/05/04 11:58:18;;;;;;;1.65;1.40;;;;;;;15.36;35.52;99279.95;1737449;81;21171;-42
2021/05/04 12:00:46;;;;;;;3.10;1.45;;;;;;;15.40;34.88;99277.98;1748371;80;22140;-39
2021/05/04 12:03:16;;;;;;;2.65;1.45;;;;;;;15.19;35.90;99274.72;1731683;82;21613;-40
2021/05/04 12:05:45;;;;;;;3.30;1.70;;;;;;;14.90;34.96;99273.95;1710442;82;21658;-40
2021/05/04 12:08:14;;;;;;;2.02;1.70;;;;;;;14.59;35.97;99286.98;1702710;84;21661;-40
2021/05/04 12:10:47;;;;;;;2.47;1.87;;;;;;;14.33;36.99;99286.69;1702656;84;21063;-39
2021/05/04 12:13:22;;;;;;;2.60;2.08;;;;;;;14.16;37.29;99281.41;1723108;82;21306;-40